• Join FlightAware (Why Join?)
  • Login
  • US Flag 
03:00PM EDT


 

Airport Tracker/Info


-or-


 

Live Flight TrackerFlight Track Log ✈ N6198Q ✈ 20-Dec-2013 ✈ KTMB - KLAL

Flight Track Log - Related Links

Times and Time Zones

All times are in EST time to prevent confusion due to time zone crossing. See the N6198Q flight status page for this flight to view local times or setup timezone preferences in your user account.

Time Position Orientation Groundspeed Altitude Reporting Facility
EST Latitude Longitude Course Direction KTS MPH feet Rate Location/Type
04:37PM 26.4142 -81.0064 332° Northwest 108 124 2,600  Level Miami Center
04:38PM 26.4428 -81.0236 332° Northwest 108 124 2,700  Climbing Miami Center
04:39PM 26.4675 -81.0408 328° Northwest 108 124 2,600 -120 Descending Miami Center
04:40PM 26.4961 -81.0628 326° Northwest 113 130 2,500 -60 Descending Miami Center
04:41PM 26.5206 -81.0822 325° Northwest 118 136 2,500  Level Miami Center
04:42PM 26.5431 -81.0992 326° Northwest 112 129 2,500  Level Miami Center
04:43PM 26.5717 -81.1189 328° Northwest 112 129 2,500  Level Miami Center
04:44PM 26.5961 -81.1383 325° Northwest 107 123 2,500 -60 Level Miami Center
04:45PM 26.6208 -81.1531 332° Northwest 107 123 2,400  Descending Miami Center
04:46PM 26.6453 -81.1725 325° Northwest 107 123 2,500  Climbing Miami Center
04:47PM 26.6717 -81.1944 323° Northwest 107 123 2,400  Descending Miami Center
04:48PM 26.6986 -81.2069 337° Northwest 139 160 2,500  Climbing Miami Center
04:49PM 26.7231 -81.2242 328° Northwest 121 139 2,500  Level Miami Center
04:50PM 26.7494 -81.2461 323° Northwest 121 139 2,500  Level Miami Center
04:51PM 26.7781 -81.2681 326° Northwest 111 128 2,500  Level Miami Center
04:55PM 26.8886 -81.3422 291° West 113 130 2,500  Level Miami Center
04:56PM 26.9172 -81.3619 328° Northwest 113 130 2,600  Climbing Miami Center
04:57PM 26.9419 -81.3769 332° Northwest 113 130 2,500 -60 Descending Miami Center
04:58PM 26.9706 -81.3967 328° Northwest 113 130 2,500  Level Miami Center
04:59PM 26.9969 -81.4139 330° Northwest 113 130 2,500 -60 Level Miami Center
05:00PM 27.0278 -81.4314 333° Northwest 113 130 2,400 -60 Descending Miami Center
05:01PM 27.0567 -81.4467 335° Northwest 113 130 2,400  Level Miami Center
05:02PM 27.0831 -81.4617 333° Northwest 113 130 2,400  Level Miami Center
05:03PM 27.1119 -81.4767 335° Northwest 113 130 2,500  Climbing Miami Center
05:04PM 27.1383 -81.4964 326° Northwest 113 130 2,500  Level Miami Center
05:05PM 27.1650 -81.5139 330° Northwest 113 130 2,500  Level Miami Center
05:06PM 27.1936 -81.5314 331° Northwest 113 130 2,500 -60 Level Miami Center
05:07PM 27.2225 -81.5467 335° Northwest 113 130 2,400 -60 Descending Miami Center
05:08PM 27.2511 -81.5664 329° Northwest 113 130 2,400  Level Miami Center
05:09PM 27.2775 -81.5883 324° Northwest 113 130 2,400  Level Miami Center
05:10PM 27.3017 -81.6153 315° West 119 137 2,400  Level Miami Center
05:11PM 27.3258 -81.6347 324° Northwest 119 137 2,500  Climbing Miami Center
05:12PM 27.3525 -81.6547 326° Northwest 119 137 2,500 -60 Level Miami Center
05:13PM 27.3789 -81.6744 326° Northwest 119 137 2,400  Descending Miami Center
05:14PM 27.4056 -81.6897 333° Northwest 114 131 2,600 60 Climbing Miami Center
05:15PM 27.4342 -81.7072 332° Northwest 114 131 2,600 -60 Level Miami Center
05:16PM 27.4608 -81.7247 330° Northwest 114 131 2,500 -60 Descending Miami Center
05:17PM 27.4872 -81.7444 326° Northwest 114 131 2,500 -300 Level Miami Center
05:18PM 27.5158 -81.7597 335° Northwest 114 131 2,000 -240 Descending Miami Center
05:19PM 27.5422 -81.7797 326° Northwest 114 131 2,100  Climbing Miami Center
05:20PM 27.5647 -81.7947 329° Northwest 114 131 2,100 180 Level Miami Center
05:21PM 27.5892 -81.8144 324° Northwest 114 131 2,500 180 Climbing Miami Center
05:22PM 27.6075 -81.8247 334° Northwest 114 131 2,500  Level Miami Center
05:23PM 27.6400 -81.8517 324° Northwest 114 131 2,500  Level Miami Center
05:24PM 27.6706 -81.8767 324° Northwest 114 131 2,500  Level Miami Center
05:25PM 27.6886 -81.8914 324° Northwest 114 131 2,500  Level Miami Center
05:26PM 27.6886 -81.8914 41° Northeast 114 131 2,500  Level Miami Center
05:27PM 27.6886 -81.8914 41° Northeast 114 131 2,500  Level Miami Center
05:28PM 27.6886 -81.8914 41° Northeast 114 131 2,500  Level Miami Center
05:29PM 27.6886 -81.8914 41° Northeast 114 131 2,500  Level Miami Center
05:30PM 27.8128 -81.9228 347° North 114 131 2,500 -180 Level Miami Center
05:31PM 27.8461 -81.9242 358° North 127 146 2,200 -180 Descending Miami Center
05:32PM 27.8753 -81.9278 354° North 113 130 2,200 120 Level Miami Center
05:33PM 27.9106 -81.9364 348° North 113 130 2,500 120 Climbing Miami Center
05:34PM 27.9414 -81.9425 350° North 113 130 2,500  Level Miami Center
05:36PM 27.9679 -81.9894 303° West  Level FlightAware Approximate
05:43PM 27.9833 -82.0167 326° Northwest  Level FlightAware Approximate
05:44PM 27.9889 -82.0186 326° Northwest  Level Estimated
05:45PM 27.9833 -82.0167 326° Northwest  Level FlightAware Approximate
05:46PM 27.9889 -82.0186 326° Northwest  Level Estimated
05:47PM 27.9833 -82.0167 326° Northwest  Level FlightAware Approximate
05:48PM 27.9889 -82.0186 326° Northwest  Level Estimated
05:49PM 27.9833 -82.0167 326° Northwest  Level FlightAware Approximate
05:50PM 27.9889 -82.0186 326° Northwest  Level Estimated
05:51PM 27.9833 -82.0167 326° Northwest  Level FlightAware Approximate